sensor_id;sensor_type;location;lat;lon;timestamp;pressure;altitude;pressure_sealevel;temperature;humidity
59272;BME280;45043;51.068;7.026;2023-06-19T00:00:30;99753.25;;;20.50;41.13
59272;BME280;45043;51.068;7.026;2023-06-19T00:03:31;99744.72;;;20.38;41.69
59272;BME280;45043;51.068;7.026;2023-06-19T00:06:31;99738.28;;;20.28;41.71
59272;BME280;45043;51.068;7.026;2023-06-19T00:09:32;99748.56;;;20.26;41.84
59272;BME280;45043;51.068;7.026;2023-06-19T00:12:33;99746.66;;;20.27;41.57
59272;BME280;45043;51.068;7.026;2023-06-19T00:15:33;99763.66;;;20.27;41.96
59272;BME280;45043;51.068;7.026;2023-06-19T00:18:34;99757.75;;;20.25;41.48
59272;BME280;45043;51.068;7.026;2023-06-19T00:21:40;99750.72;;;20.29;41.51
59272;BME280;45043;51.068;7.026;2023-06-19T00:24:43;99747.72;;;20.31;41.26
59272;BME280;45043;51.068;7.026;2023-06-19T00:27:43;99745.88;;;20.26;41.44
59272;BME280;45043;51.068;7.026;2023-06-19T00:30:43;99754.50;;;20.23;41.82
59272;BME280;45043;51.068;7.026;2023-06-19T00:33:45;99743.44;;;20.25;41.74
59272;BME280;45043;51.068;7.026;2023-06-19T00:36:47;99751.00;;;20.23;41.86
59272;BME280;45043;51.068;7.026;2023-06-19T00:39:48;99754.00;;;20.16;41.44
59272;BME280;45043;51.068;7.026;2023-06-19T00:42:48;99760.75;;;20.19;41.80
59272;BME280;45043;51.068;7.026;2023-06-19T00:45:48;99768.03;;;20.18;41.76
59272;BME280;45043;51.068;7.026;2023-06-19T00:48:49;99767.50;;;20.16;41.47
59272;BME280;45043;51.068;7.026;2023-06-19T00:51:51;99773.94;;;20.20;41.53
59272;BME280;45043;51.068;7.026;2023-06-19T00:54:52;99775.53;;;20.21;41.60
59272;BME280;45043;51.068;7.026;2023-06-19T00:57:55;99781.78;;;20.22;41.35
59272;BME280;45043;51.068;7.026;2023-06-19T01:00:57;99786.34;;;20.21;42.01
59272;BME280;45043;51.068;7.026;2023-06-19T01:03:58;99785.56;;;20.16;41.82
59272;BME280;45043;51.068;7.026;2023-06-19T01:07:09;99791.50;;;20.13;41.98
59272;BME280;45043;51.068;7.026;2023-06-19T01:10:16;99786.66;;;20.04;42.25
59272;BME280;45043;51.068;7.026;2023-06-19T01:13:36;99793.97;;;19.94;42.86
59272;BME280;45043;51.068;7.026;2023-06-19T01:16:37;99789.94;;;19.91;42.92
59272;BME280;45043;51.068;7.026;2023-06-19T01:19:38;99791.31;;;19.89;43.12
59272;BME280;45043;51.068;7.026;2023-06-19T01:22:39;99787.31;;;19.81;43.54
59272;BME280;45043;51.068;7.026;2023-06-19T01:25:39;99782.19;;;19.74;43.52
59272;BME280;45043;51.068;7.026;2023-06-19T01:28:41;99777.91;;;19.68;43.96
59272;BME280;45043;51.068;7.026;2023-06-19T01:31:59;99777.91;;;19.63;44.05
59272;BME280;45043;51.068;7.026;2023-06-19T01:35:02;99777.38;;;19.66;44.21
59272;BME280;45043;51.068;7.026;2023-06-19T01:38:05;99776.06;;;19.58;43.24
59272;BME280;45043;51.068;7.026;2023-06-19T01:41:07;99772.53;;;19.58;43.21
59272;BME280;45043;51.068;7.026;2023-06-19T01:44:08;99783.31;;;19.58;42.18
59272;BME280;45043;51.068;7.026;2023-06-19T01:47:12;99795.16;;;19.62;42.77
59272;BME280;45043;51.068;7.026;2023-06-19T01:50:16;99800.00;;;19.65;42.38
59272;BME280;45043;51.068;7.026;2023-06-19T01:53:18;99796.22;;;19.71;42.64
59272;BME280;45043;51.068;7.026;2023-06-19T01:56:20;99789.75;;;19.77;42.38
59272;BME280;45043;51.068;7.026;2023-06-19T01:59:21;99792.44;;;19.77;42.66
59272;BME280;45043;51.068;7.026;2023-06-19T02:02:21;99784.34;;;19.72;42.62
59272;BME280;45043;51.068;7.026;2023-06-19T02:05:24;99801.03;;;19.79;42.72
59272;BME280;45043;51.068;7.026;2023-06-19T02:08:24;99796.19;;;19.76;43.18
59272;BME280;45043;51.068;7.026;2023-06-19T02:11:25;99800.50;;;19.72;42.82
59272;BME280;45043;51.068;7.026;2023-06-19T02:14:28;99801.03;;;19.79;42.68
59272;BME280;45043;51.068;7.026;2023-06-19T02:17:28;99815.06;;;19.81;42.31
59272;BME280;45043;51.068;7.026;2023-06-19T02:20:37;99824.72;;;19.87;42.66
59272;BME280;45043;51.068;7.026;2023-06-19T02:23:39;99838.75;;;19.90;42.74
59272;BME280;45043;51.068;7.026;2023-06-19T02:26:41;99838.22;;;19.82;42.90
59272;BME280;45043;51.068;7.026;2023-06-19T02:29:44;99843.09;;;19.75;42.88
59272;BME280;45043;51.068;7.026;2023-06-19T02:32:44;99844.75;;;19.66;42.87
59272;BME280;45043;51.068;7.026;2023-06-19T02:35:47;99858.47;;;19.65;43.51
59272;BME280;45043;51.068;7.026;2023-06-19T02:38:50;99863.59;;;19.61;42.80
59272;BME280;45043;51.068;7.026;2023-06-19T02:41:51;99865.75;;;19.59;42.84
59272;BME280;45043;51.068;7.026;2023-06-19T02:44:51;99873.28;;;19.62;42.84
59272;BME280;45043;51.068;7.026;2023-06-19T02:47:53;99880.56;;;19.61;43.21
59272;BME280;45043;51.068;7.026;2023-06-19T02:50:53;99879.75;;;19.61;43.30
59272;BME280;45043;51.068;7.026;2023-06-19T02:53:54;99874.63;;;19.54;43.43
59272;BME280;45043;51.068;7.026;2023-06-19T02:56:56;99874.63;;;19.54;43.34
59272;BME280;45043;51.068;7.026;2023-06-19T02:59:56;99859.31;;;19.45;43.75
59272;BME280;45043;51.068;7.026;2023-06-19T03:02:56;99876.53;;;19.49;43.88
59272;BME280;45043;51.068;7.026;2023-06-19T03:05:59;99871.44;;;19.52;43.66
59272;BME280;45043;51.068;7.026;2023-06-19T03:09:01;99874.63;;;19.54;42.91
59272;BME280;45043;51.068;7.026;2023-06-19T03:12:01;99887.84;;;19.56;43.54
59272;BME280;45043;51.068;7.026;2023-06-19T03:15:03;99884.06;;;19.57;43.57
59272;BME280;45043;51.068;7.026;2023-06-19T03:18:07;99894.59;;;19.53;43.41
59272;BME280;45043;51.068;7.026;2023-06-19T03:21:15;99900.78;;;19.59;43.37
59272;BME280;45043;51.068;7.026;2023-06-19T03:24:18;99894.31;;;19.60;43.01
59272;BME280;45043;51.068;7.026;2023-06-19T03:27:18;99898.91;;;19.59;43.28
59272;BME280;45043;51.068;7.026;2023-06-19T03:30:19;99896.72;;;19.61;43.15
59272;BME280;45043;51.068;7.026;2023-06-19T03:33:24;99912.09;;;19.61;43.20
59272;BME280;45043;51.068;7.026;2023-06-19T03:36:24;99918.00;;;19.58;43.51
59272;BME280;45043;51.068;7.026;2023-06-19T03:39:25;99928.25;;;19.61;43.53
59272;BME280;45043;51.068;7.026;2023-06-19T03:42:29;99927.16;;;19.62;43.48
59272;BME280;45043;51.068;7.026;2023-06-19T03:45:29;99939.84;;;19.67;43.04
59272;BME280;45043;51.068;7.026;2023-06-19T03:48:29;99927.44;;;19.66;43.21
59272;BME280;45043;51.068;7.026;2023-06-19T03:51:30;99957.09;;;19.76;43.32
59272;BME280;45043;51.068;7.026;2023-06-19T03:54:31;99965.97;;;19.76;43.67
59272;BME280;45043;51.068;7.026;2023-06-19T03:57:31;99977.84;;;19.65;43.77
59272;BME280;45043;51.068;7.026;2023-06-19T04:00:32;99983.22;;;19.45;44.49
59272;BME280;45043;51.068;7.026;2023-06-19T04:03:32;99988.00;;;19.27;44.85
59272;BME280;45043;51.068;7.026;2023-06-19T04:06:33;99989.59;;;19.18;45.10
59272;BME280;45043;51.068;7.026;2023-06-19T04:09:34;99990.09;;;19.10;45.88
59272;BME280;45043;51.068;7.026;2023-06-19T04:12:35;100015.41;;;19.04;46.25
59272;BME280;45043;51.068;7.026;2023-06-19T04:15:35;100005.97;;;18.96;46.82
59272;BME280;45043;51.068;7.026;2023-06-19T04:18:37;100010.78;;;18.94;46.97
59272;BME280;45043;51.068;7.026;2023-06-19T04:21:38;100006.19;;;18.89;47.28
59272;BME280;45043;51.068;7.026;2023-06-19T04:24:43;100027.16;;;18.87;46.89
59272;BME280;45043;51.068;7.026;2023-06-19T04:27:45;100023.38;;;18.78;47.54
59272;BME280;45043;51.068;7.026;2023-06-19T04:30:45;100026.59;;;18.75;47.82
59272;BME280;45043;51.068;7.026;2023-06-19T04:33:46;100031.16;;;18.70;48.10
59272;BME280;45043;51.068;7.026;2023-06-19T04:36:47;100035.69;;;18.69;48.07
59272;BME280;45043;51.068;7.026;2023-06-19T04:39:48;100036.97;;;18.61;48.85
59272;BME280;45043;51.068;7.026;2023-06-19T04:42:48;100061.97;;;18.62;48.76
59272;BME280;45043;51.068;7.026;2023-06-19T04:45:48;100055.25;;;18.59;49.37
59272;BME280;45043;51.068;7.026;2023-06-19T04:48:49;100052.88;;;18.63;49.31
59272;BME280;45043;51.068;7.026;2023-06-19T04:51:50;100047.72;;;18.56;49.04
59272;BME280;45043;51.068;7.026;2023-06-19T04:54:52;100042.84;;;18.53;49.57
59272;BME280;45043;51.068;7.026;2023-06-19T04:57:53;100035.03;;;18.52;48.98
59272;BME280;45043;51.068;7.026;2023-06-19T05:00:53;100035.88;;;18.57;49.20
59272;BME280;45043;51.068;7.026;2023-06-19T05:03:54;100043.53;;;18.71;49.06
59272;BME280;45043;51.068;7.026;2023-06-19T05:06:55;100046.00;;;18.82;49.22
59272;BME280;45043;51.068;7.026;2023-06-19T05:09:56;100043.59;;;18.81;48.76
59272;BME280;45043;51.068;7.026;2023-06-19T05:12:56;100053.50;;;18.80;49.21
59272;BME280;45043;51.068;7.026;2023-06-19T05:15:57;100054.63;;;18.84;49.05
59272;BME280;45043;51.068;7.026;2023-06-19T05:18:57;100060.00;;;18.84;49.25
59272;BME280;45043;51.068;7.026;2023-06-19T05:21:57;100055.44;;;18.85;49.01
59272;BME280;45043;51.068;7.026;2023-06-19T05:24:58;100052.41;;;18.76;49.22
59272;BME280;45043;51.068;7.026;2023-06-19T05:27:58;100064.59;;;18.89;48.51
59272;BME280;45043;51.068;7.026;2023-06-19T05:30:58;100050.06;;;18.90;48.74
59272;BME280;45043;51.068;7.026;2023-06-19T05:33:59;100061.34;;;18.87;48.66
59272;BME280;45043;51.068;7.026;2023-06-19T05:36:59;100052.75;;;18.85;49.21
59272;BME280;45043;51.068;7.026;2023-06-19T05:40:04;100043.31;;;18.87;48.99
59272;BME280;45043;51.068;7.026;2023-06-19T05:43:05;100063.25;;;18.86;48.69
59272;BME280;45043;51.068;7.026;2023-06-19T05:46:06;100070.00;;;18.94;48.63
59272;BME280;45043;51.068;7.026;2023-06-19T05:49:07;100059.50;;;18.93;48.11
59272;BME280;45043;51.068;7.026;2023-06-19T05:52:07;100058.44;;;18.94;48.51
59272;BME280;45043;51.068;7.026;2023-06-19T05:55:08;100065.69;;;18.88;48.14
59272;BME280;45043;51.068;7.026;2023-06-19T05:58:09;100077.84;;;18.96;48.00
59272;BME280;45043;51.068;7.026;2023-06-19T06:01:12;100078.94;;;19.05;48.01
59272;BME280;45043;51.068;7.026;2023-06-19T06:04:12;100074.13;;;19.17;47.78
59272;BME280;45043;51.068;7.026;2023-06-19T06:07:13;100079.31;;;19.29;47.57
59272;BME280;45043;51.068;7.026;2023-06-19T06:10:14;100081.00;;;19.40;46.87
59272;BME280;45043;51.068;7.026;2023-06-19T06:13:15;100085.31;;;19.41;46.36
59272;BME280;45043;51.068;7.026;2023-06-19T06:16:18;100080.19;;;19.45;45.88
59272;BME280;45043;51.068;7.026;2023-06-19T06:19:21;100092.81;;;19.39;46.04
59272;BME280;45043;51.068;7.026;2023-06-19T06:22:23;100078.59;;;19.44;46.16
59272;BME280;45043;51.068;7.026;2023-06-19T06:25:23;100079.16;;;19.61;45.08
59272;BME280;45043;51.068;7.026;2023-06-19T06:28:24;100073.78;;;19.66;45.04
59272;BME280;45043;51.068;7.026;2023-06-19T06:31:28;100091.06;;;19.85;44.21
59272;BME280;45043;51.068;7.026;2023-06-19T06:34:29;100078.13;;;19.93;44.24
59272;BME280;45043;51.068;7.026;2023-06-19T06:37:29;100075.97;;;20.00;43.97
59272;BME280;45043;51.068;7.026;2023-06-19T06:40:30;100089.44;;;19.95;43.58
59272;BME280;45043;51.068;7.026;2023-06-19T06:43:30;100073.28;;;19.90;44.04
59272;BME280;45043;51.068;7.026;2023-06-19T06:46:31;100081.09;;;19.96;43.45
59272;BME280;45043;51.068;7.026;2023-06-19T06:49:31;100101.56;;;20.02;43.50
59272;BME280;45043;51.068;7.026;2023-06-19T06:52:32;100093.81;;;20.11;43.42
59272;BME280;45043;51.068;7.026;2023-06-19T06:55:32;100100.78;;;20.07;43.81
59272;BME280;45043;51.068;7.026;2023-06-19T06:58:33;100102.97;;;20.10;43.58
59272;BME280;45043;51.068;7.026;2023-06-19T07:01:33;100105.16;;;20.18;43.09
59272;BME280;45043;51.068;7.026;2023-06-19T07:04:33;100118.88;;;20.17;43.22
59272;BME280;45043;51.068;7.026;2023-06-19T07:07:37;100128.56;;;20.07;43.58
59272;BME280;45043;51.068;7.026;2023-06-19T07:10:37;100137.97;;;19.95;43.76
59272;BME280;45043;51.068;7.026;2023-06-19T07:13:38;100140.38;;;19.86;44.26
59272;BME280;45043;51.068;7.026;2023-06-19T07:16:38;100152.50;;;19.83;44.26
59272;BME280;45043;51.068;7.026;2023-06-19T07:19:42;100146.03;;;19.79;44.54
59272;BME280;45043;51.068;7.026;2023-06-19T07:22:50;100146.88;;;19.85;44.48
59272;BME280;45043;51.068;7.026;2023-06-19T07:25:51;100129.88;;;19.90;44.00
59272;BME280;45043;51.068;7.026;2023-06-19T07:28:54;100125.03;;;19.92;44.05
59272;BME280;45043;51.068;7.026;2023-06-19T07:31:54;100143.09;;;20.01;43.99
59272;BME280;45043;51.068;7.026;2023-06-19T07:34:55;100141.00;;;20.14;43.96
59272;BME280;45043;51.068;7.026;2023-06-19T07:37:55;100129.69;;;20.22;43.47
59272;BME280;45043;51.068;7.026;2023-06-19T07:40:56;100136.69;;;20.23;44.19
59272;BME280;45043;51.068;7.026;2023-06-19T07:43:56;100126.72;;;20.18;43.61
59272;BME280;45043;51.068;7.026;2023-06-19T07:46:57;100125.09;;;20.22;43.29
59272;BME280;45043;51.068;7.026;2023-06-19T07:49:57;100131.03;;;20.14;43.69
59272;BME280;45043;51.068;7.026;2023-06-19T07:52:58;100136.69;;;20.28;43.91
59272;BME280;45043;51.068;7.026;2023-06-19T07:55:58;100134.28;;;20.26;44.00
59272;BME280;45043;51.068;7.026;2023-06-19T07:58:59;100141.28;;;20.27;43.88
59272;BME280;45043;51.068;7.026;2023-06-19T08:01:59;100140.44;;;20.17;44.49
59272;BME280;45043;51.068;7.026;2023-06-19T08:05:00;100158.00;;;20.29;44.39
59272;BME280;45043;51.068;7.026;2023-06-19T08:08:00;100135.34;;;20.30;44.14
59272;BME280;45043;51.068;7.026;2023-06-19T08:11:04;100134.53;;;20.40;44.69
59272;BME280;45043;51.068;7.026;2023-06-19T08:14:04;100136.13;;;20.36;44.72
59272;BME280;45043;51.068;7.026;2023-06-19T08:17:05;100128.88;;;20.37;44.87
59272;BME280;45043;51.068;7.026;2023-06-19T08:20:06;100143.44;;;20.46;44.63
59272;BME280;45043;51.068;7.026;2023-06-19T08:23:07;100148.28;;;20.49;44.44
59272;BME280;45043;51.068;7.026;2023-06-19T08:26:07;100152.84;;;20.58;43.95
59272;BME280;45043;51.068;7.026;2023-06-19T08:29:08;100143.97;;;20.63;43.97
59272;BME280;45043;51.068;7.026;2023-06-19T08:32:09;100155.31;;;20.60;44.32
59272;BME280;45043;51.068;7.026;2023-06-19T08:35:09;100154.50;;;20.70;44.21
59272;BME280;45043;51.068;7.026;2023-06-19T08:38:10;100152.06;;;20.89;43.96
59272;BME280;45043;51.068;7.026;2023-06-19T08:41:10;100144.19;;;21.08;43.41
59272;BME280;45043;51.068;7.026;2023-06-19T08:44:11;100144.97;;;21.18;43.15
59272;BME280;45043;51.068;7.026;2023-06-19T08:47:11;100137.41;;;21.10;43.01
59272;BME280;45043;51.068;7.026;2023-06-19T08:50:12;100164.41;;;21.15;43.18
59272;BME280;45043;51.068;7.026;2023-06-19T08:53:12;100141.41;;;21.28;42.91
59272;BME280;45043;51.068;7.026;2023-06-19T08:56:13;100154.06;;;21.38;42.62
59272;BME280;45043;51.068;7.026;2023-06-19T08:59:18;100145.97;;;21.33;42.50
59272;BME280;45043;51.068;7.026;2023-06-19T09:02:20;100156.22;;;21.36;42.02
59272;BME280;45043;51.068;7.026;2023-06-19T09:05:23;100150.34;;;21.23;41.61
59272;BME280;45043;51.068;7.026;2023-06-19T09:08:25;100143.84;;;21.24;42.13
59272;BME280;45043;51.068;7.026;2023-06-19T09:11:29;100140.53;;;21.43;41.12
59272;BME280;45043;51.068;7.026;2023-06-19T09:14:41;100154.63;;;21.35;41.22
59272;BME280;45043;51.068;7.026;2023-06-19T09:17:41;100173.56;;;21.29;40.50
59272;BME280;45043;51.068;7.026;2023-06-19T09:20:53;100159.47;;;21.38;40.87
59272;BME280;45043;51.068;7.026;2023-06-19T09:23:53;100164.34;;;21.36;40.74
59272;BME280;45043;51.068;7.026;2023-06-19T09:27:10;100184.84;;;21.42;40.36
59272;BME280;45043;51.068;7.026;2023-06-19T09:30:15;100167.84;;;21.36;40.49
59272;BME280;45043;51.068;7.026;2023-06-19T09:33:16;100160.06;;;21.29;40.92
59272;BME280;45043;51.068;7.026;2023-06-19T09:36:16;100158.69;;;21.27;40.86
59272;BME280;45043;51.068;7.026;2023-06-19T09:39:18;100174.91;;;21.27;40.82
59272;BME280;45043;51.068;7.026;2023-06-19T09:42:29;100198.41;;;21.21;41.09
59272;BME280;45043;51.068;7.026;2023-06-19T09:45:30;100182.75;;;21.23;41.09
59272;BME280;45043;51.068;7.026;2023-06-19T09:48:33;100160.59;;;21.26;40.93
59272;BME280;45043;51.068;7.026;2023-06-19T09:51:37;100180.84;;;21.29;40.62
59272;BME280;45043;51.068;7.026;2023-06-19T09:54:41;100177.31;;;21.34;40.47
59272;BME280;45043;51.068;7.026;2023-06-19T09:57:44;100183.25;;;21.46;40.13
59272;BME280;45043;51.068;7.026;2023-06-19T10:00:45;100182.16;;;21.47;39.90
59272;BME280;45043;51.068;7.026;2023-06-19T10:03:47;100171.84;;;21.54;40.05
59272;BME280;45043;51.068;7.026;2023-06-19T10:06:47;100200.50;;;21.60;39.50
59272;BME280;45043;51.068;7.026;2023-06-19T10:10:04;100188.38;;;21.42;39.51
59272;BME280;45043;51.068;7.026;2023-06-19T10:13:17;100178.66;;;21.46;39.41
59272;BME280;45043;51.068;7.026;2023-06-19T10:16:23;100177.00;;;21.45;39.51
59272;BME280;45043;51.068;7.026;2023-06-19T10:19:24;100175.91;;;21.57;39.60
59272;BME280;45043;51.068;7.026;2023-06-19T10:22:30;100166.06;;;21.76;39.24
59272;BME280;45043;51.068;7.026;2023-06-19T10:25:35;100175.00;;;21.76;39.44
59272;BME280;45043;51.068;7.026;2023-06-19T10:28:36;100170.63;;;21.86;39.12
59272;BME280;45043;51.068;7.026;2023-06-19T10:31:36;100172.75;;;21.94;38.82
59272;BME280;45043;51.068;7.026;2023-06-19T10:34:37;100161.38;;;21.92;39.08
59272;BME280;45043;51.068;7.026;2023-06-19T10:37:37;100156.16;;;22.11;38.64
59272;BME280;45043;51.068;7.026;2023-06-19T10:40:37;100158.53;;;22.22;38.25
59272;BME280;45043;51.068;7.026;2023-06-19T10:43:38;100169.00;;;22.29;37.40
59272;BME280;45043;51.068;7.026;2023-06-19T10:46:38;100164.31;;;22.40;37.09
59272;BME280;45043;51.068;7.026;2023-06-19T10:49:41;100175.13;;;22.45;37.10
59272;BME280;45043;51.068;7.026;2023-06-19T10:52:43;100155.31;;;22.49;37.18
59272;BME280;45043;51.068;7.026;2023-06-19T10:55:44;100146.19;;;22.69;36.54
59272;BME280;45043;51.068;7.026;2023-06-19T10:58:45;100161.28;;;22.81;36.26
59272;BME280;45043;51.068;7.026;2023-06-19T11:01:46;100151.22;;;22.86;36.39
59272;BME280;45043;51.068;7.026;2023-06-19T11:04:47;100148.19;;;22.88;36.61
59272;BME280;45043;51.068;7.026;2023-06-19T11:08:00;100147.63;;;22.91;36.34
59272;BME280;45043;51.068;7.026;2023-06-19T11:11:00;100144.94;;;22.91;37.02
59272;BME280;45043;51.068;7.026;2023-06-19T11:14:01;100145.09;;;22.99;36.21
59272;BME280;45043;51.068;7.026;2023-06-19T11:17:01;100145.41;;;22.98;36.11
59272;BME280;45043;51.068;7.026;2023-06-19T11:20:02;100147.44;;;23.11;35.33
59272;BME280;45043;51.068;7.026;2023-06-19T11:23:08;100139.63;;;23.29;35.50
59272;BME280;45043;51.068;7.026;2023-06-19T11:26:10;100139.75;;;23.18;35.42
59272;BME280;45043;51.068;7.026;2023-06-19T11:29:29;100134.38;;;23.13;35.42
59272;BME280;45043;51.068;7.026;2023-06-19T11:32:31;100141.94;;;23.16;34.93
59272;BME280;45043;51.068;7.026;2023-06-19T11:35:33;100128.84;;;23.23;34.64
59272;BME280;45043;51.068;7.026;2023-06-19T11:38:37;100142.97;;;23.20;34.02
59272;BME280;45043;51.068;7.026;2023-06-19T11:41:39;100137.03;;;23.18;34.59
59272;BME280;45043;51.068;7.026;2023-06-19T11:44:55;100140.91;;;23.12;34.48
59272;BME280;45043;51.068;7.026;2023-06-19T11:47:56;100143.31;;;23.14;35.11
59272;BME280;45043;51.068;7.026;2023-06-19T11:50:57;100121.28;;;23.20;34.32
59272;BME280;45043;51.068;7.026;2023-06-19T11:53:58;100133.63;;;23.32;34.63
59272;BME280;45043;51.068;7.026;2023-06-19T11:56:58;100153.97;;;23.29;34.91
59272;BME280;45043;51.068;7.026;2023-06-19T11:59:59;100161.81;;;23.31;34.60
59272;BME280;45043;51.068;7.026;2023-06-19T12:02:59;100138.53;;;23.30;34.51
59272;BME280;45043;51.068;7.026;2023-06-19T12:06:00;100153.06;;;23.39;34.22
59272;BME280;45043;51.068;7.026;2023-06-19T12:09:00;100148.56;;;23.53;34.84
59272;BME280;45043;51.068;7.026;2023-06-19T12:12:01;100144.03;;;23.67;33.28
59272;BME280;45043;51.068;7.026;2023-06-19T12:15:01;100145.50;;;23.79;33.63
59272;BME280;45043;51.068;7.026;2023-06-19T12:18:02;100139.00;;;23.99;32.92
59272;BME280;45043;51.068;7.026;2023-06-19T12:21:04;100133.72;;;24.07;32.82
59272;BME280;45043;51.068;7.026;2023-06-19T12:24:05;100129.66;;;24.24;32.47
59272;BME280;45043;51.068;7.026;2023-06-19T12:27:06;100125.88;;;24.38;32.19
59272;BME280;45043;51.068;7.026;2023-06-19T12:30:07;100116.66;;;24.53;32.18
59272;BME280;45043;51.068;7.026;2023-06-19T12:33:08;100130.78;;;24.69;31.40
59272;BME280;45043;51.068;7.026;2023-06-19T12:36:10;100133.41;;;24.88;31.14
59272;BME280;45043;51.068;7.026;2023-06-19T12:39:12;100126.19;;;24.97;31.20
59272;BME280;45043;51.068;7.026;2023-06-19T12:42:16;100133.44;;;25.02;29.95
59272;BME280;45043;51.068;7.026;2023-06-19T12:45:17;100142.91;;;24.90;30.33
59272;BME280;45043;51.068;7.026;2023-06-19T12:48:17;100144.00;;;24.89;30.85
59272;BME280;45043;51.068;7.026;2023-06-19T12:51:17;100131.41;;;24.80;30.75
59272;BME280;45043;51.068;7.026;2023-06-19T12:54:18;100128.00;;;25.02;31.24
59272;BME280;45043;51.068;7.026;2023-06-19T12:57:19;100127.19;;;25.01;31.46
59272;BME280;45043;51.068;7.026;2023-06-19T13:00:19;100138.16;;;24.96;30.63
59272;BME280;45043;51.068;7.026;2023-06-19T13:03:19;100131.63;;;24.97;30.94
59272;BME280;45043;51.068;7.026;2023-06-19T13:06:20;100135.94;;;24.98;30.57
59272;BME280;45043;51.068;7.026;2023-06-19T13:09:20;100125.16;;;25.07;30.45
59272;BME280;45043;51.068;7.026;2023-06-19T13:12:22;100118.44;;;25.04;30.58
59272;BME280;45043;51.068;7.026;2023-06-19T13:15:22;100108.66;;;25.03;31.64
59272;BME280;45043;51.068;7.026;2023-06-19T13:18:23;100105.69;;;25.19;30.86
59272;BME280;45043;51.068;7.026;2023-06-19T13:21:23;100091.84;;;25.43;30.84
59272;BME280;45043;51.068;7.026;2023-06-19T13:24:23;100102.56;;;25.61;30.47
59272;BME280;45043;51.068;7.026;2023-06-19T13:27:27;100092.47;;;25.76;29.71
59272;BME280;45043;51.068;7.026;2023-06-19T13:30:27;100097.31;;;25.79;30.26
59272;BME280;45043;51.068;7.026;2023-06-19T13:33:29;100088.16;;;25.75;29.57
59272;BME280;45043;51.068;7.026;2023-06-19T13:36:30;100080.38;;;25.82;30.09
59272;BME280;45043;51.068;7.026;2023-06-19T13:39:30;100091.00;;;25.92;29.60
59272;BME280;45043;51.068;7.026;2023-06-19T13:42:31;100088.03;;;25.80;29.86
59272;BME280;45043;51.068;7.026;2023-06-19T13:45:32;100077.84;;;25.72;29.40
59272;BME280;45043;51.068;7.026;2023-06-19T13:48:32;100076.84;;;26.04;29.63
59272;BME280;45043;51.068;7.026;2023-06-19T13:51:33;100081.66;;;26.07;29.83
59272;BME280;45043;51.068;7.026;2023-06-19T13:54:33;100083.84;;;26.19;28.73
59272;BME280;45043;51.068;7.026;2023-06-19T13:57:33;100078.38;;;26.41;28.91
59272;BME280;45043;51.068;7.026;2023-06-19T14:00:34;100070.56;;;26.48;28.15
59272;BME280;45043;51.068;7.026;2023-06-19T14:03:38;100065.44;;;26.87;27.77
59272;BME280;45043;51.068;7.026;2023-06-19T14:06:39;100082.63;;;26.96;28.05
59272;BME280;45043;51.068;7.026;2023-06-19T14:09:42;100071.41;;;27.06;27.41
59272;BME280;45043;51.068;7.026;2023-06-19T14:12:43;100077.38;;;27.17;27.06
59272;BME280;45043;51.068;7.026;2023-06-19T14:15:43;100074.16;;;27.15;26.97
59272;BME280;45043;51.068;7.026;2023-06-19T14:18:44;100072.72;;;27.09;27.41
59272;BME280;45043;51.068;7.026;2023-06-19T14:21:44;100073.53;;;27.18;27.14
59272;BME280;45043;51.068;7.026;2023-06-19T14:24:45;100073.75;;;27.47;26.75
59272;BME280;45043;51.068;7.026;2023-06-19T14:27:45;100068.28;;;27.99;25.99
59272;BME280;45043;51.068;7.026;2023-06-19T14:30:46;100063.75;;;28.21;25.04
59272;BME280;45043;51.068;7.026;2023-06-19T14:33:46;100063.50;;;28.61;25.13
59272;BME280;45043;51.068;7.026;2023-06-19T14:36:47;100062.88;;;29.14;24.13
59272;BME280;45043;51.068;7.026;2023-06-19T14:39:48;100063.56;;;29.32;23.85
59272;BME280;45043;51.068;7.026;2023-06-19T14:42:48;100047.84;;;29.50;23.57
59272;BME280;45043;51.068;7.026;2023-06-19T14:45:49;100048.13;;;29.49;23.79
59272;BME280;45043;51.068;7.026;2023-06-19T14:48:50;100045.69;;;29.35;24.16
59272;BME280;45043;51.068;7.026;2023-06-19T14:51:51;100056.78;;;29.38;24.29
59272;BME280;45043;51.068;7.026;2023-06-19T14:54:51;100047.31;;;29.57;23.79
59272;BME280;45043;51.068;7.026;2023-06-19T14:57:52;100051.38;;;29.51;23.75
59272;BME280;45043;51.068;7.026;2023-06-19T15:00:52;100048.97;;;29.28;23.62
59272;BME280;45043;51.068;7.026;2023-06-19T15:03:52;100041.19;;;29.60;23.64
59272;BME280;45043;51.068;7.026;2023-06-19T15:06:53;100035.53;;;30.23;22.92
59272;BME280;45043;51.068;7.026;2023-06-19T15:09:53;100043.25;;;30.91;22.45
59272;BME280;45043;51.068;7.026;2023-06-19T15:12:54;100049.44;;;31.12;21.55
59272;BME280;45043;51.068;7.026;2023-06-19T15:15:54;100045.75;;;31.20;21.64
59272;BME280;45043;51.068;7.026;2023-06-19T15:18:55;100027.72;;;31.47;21.78
59272;BME280;45043;51.068;7.026;2023-06-19T15:21:55;100035.97;;;31.75;21.16
59272;BME280;45043;51.068;7.026;2023-06-19T15:24:55;100027.09;;;31.82;21.18
59272;BME280;45043;51.068;7.026;2023-06-19T15:27:56;100027.47;;;31.80;20.38
59272;BME280;45043;51.068;7.026;2023-06-19T15:30:56;100028.91;;;31.90;20.67
59272;BME280;45043;51.068;7.026;2023-06-19T15:33:56;100026.75;;;32.27;20.20
59272;BME280;45043;51.068;7.026;2023-06-19T15:36:57;100021.44;;;32.50;20.11
59272;BME280;45043;51.068;7.026;2023-06-19T15:39:57;100021.63;;;32.58;19.86
59272;BME280;45043;51.068;7.026;2023-06-19T15:42:58;100031.56;;;32.30;19.78
59272;BME280;45043;51.068;7.026;2023-06-19T15:45:58;100014.63;;;32.44;19.37
59272;BME280;45043;51.068;7.026;2023-06-19T15:48:58;99995.19;;;32.53;19.90
59272;BME280;45043;51.068;7.026;2023-06-19T15:51:59;99997.47;;;32.67;20.06